Time;durP1;ratioP1;P1;durP2;ratioP2;P2;SDS_P1;SDS_P2;PMS_P1;PMS_P2;Temp;Humidity;BMP_temperature;BMP_pressure;BME280_temperature;BME280_humidity;BME280_pressure;Samples;Min_cycle;Max_cycle;Signal;HPM_P1;HPM_P2
2022/01/12 00:00:29;;;;;;;11.27;4.72;;;;;;;4.89;100.00;102665.38;4976852;28;20039;-71
2022/01/12 00:02:55;;;;;;;11.45;3.97;;;;;;;4.98;100.00;102659.22;4980348;28;20463;-71
2022/01/12 00:05:21;;;;;;;15.60;5.38;;;;;;;5.07;100.00;102656.81;4974261;28;20043;-71
2022/01/12 00:07:49;;;;;;;12.05;4.43;;;;;;;5.01;100.00;102657.91;4984782;28;20031;-71
2022/01/12 00:10:20;;;;;;;13.88;4.15;;;;;;;5.01;100.00;102656.03;4953337;28;20082;-71
2022/01/12 00:12:45;;;;;;;8.80;3.95;;;;;;;4.96;100.00;102658.69;4965245;28;20042;-71
2022/01/12 00:15:11;;;;;;;14.85;4.70;;;;;;;4.93;100.00;102667.25;4970821;28;20118;-72
2022/01/12 00:17:39;;;;;;;10.88;4.57;;;;;;;4.91;100.00;102665.91;4972971;28;20449;-71
2022/01/12 00:20:07;;;;;;;12.70;5.43;;;;;;;4.85;100.00;102662.44;4975776;28;20034;-71
2022/01/12 00:22:33;;;;;;;8.90;3.13;;;;;;;4.90;100.00;102675.75;4971873;28;20061;-71
2022/01/12 00:33:11;;;;;;;10.25;4.22;;;;;;;5.02;100.00;102683.50;4973012;28;20066;-71
2022/01/12 00:35:54;;;;;;;9.23;3.90;;;;;;;5.04;100.00;102682.19;4980811;28;20129;-72
2022/01/12 00:38:23;;;;;;;8.20;3.38;;;;;;;5.05;100.00;102681.09;4952103;29;20035;-71
2022/01/12 00:40:50;;;;;;;10.45;3.97;;;;;;;5.05;100.00;102681.09;4969054;28;20037;-71
2022/01/12 00:43:18;;;;;;;8.25;3.25;;;;;;;5.07;100.00;102694.97;4982157;28;20121;-71
2022/01/12 00:45:46;;;;;;;7.65;3.55;;;;;;;5.09;100.00;102694.75;4973592;28;20184;-71
2022/01/12 00:48:16;;;;;;;7.85;3.08;;;;;;;5.08;100.00;102688.59;4984968;28;20093;-72
2022/01/12 00:50:43;;;;;;;10.30;4.35;;;;;;;5.19;100.00;102692.03;4972156;28;20529;-72
2022/01/12 00:53:10;;;;;;;7.45;3.55;;;;;;;5.15;100.00;102689.13;4987431;28;20053;-71
2022/01/12 00:55:38;;;;;;;7.35;3.88;;;;;;;5.19;100.00;102689.38;4990820;28;20071;-71
2022/01/12 00:58:05;;;;;;;10.25;3.78;;;;;;;5.12;100.00;102687.00;5006484;28;20035;-71
2022/01/12 01:00:31;;;;;;;6.78;2.88;;;;;;;5.17;100.00;102686.97;4973607;28;20039;-71
2022/01/12 01:02:57;;;;;;;6.47;3.00;;;;;;;5.18;100.00;102687.78;4968138;28;20046;-72
2022/01/12 01:05:26;;;;;;;7.85;3.15;;;;;;;5.21;100.00;102698.72;4969104;28;20132;-72
2022/01/12 01:07:55;;;;;;;6.95;2.95;;;;;;;5.26;100.00;102693.41;4971143;28;20454;-72
2022/01/12 01:13:03;;;;;;;7.60;3.25;;;;;;;5.20;100.00;102707.00;4972115;28;20126;-72
2022/01/12 01:15:54;;;;;;;8.45;3.63;;;;;;;5.13;100.00;102719.84;4980431;28;20080;-72
2022/01/12 01:26:34;;;;;;;6.32;2.92;;;;;;;5.41;100.00;102722.75;4971315;28;20027;-71
2022/01/12 01:28:59;;;;;;;7.30;3.88;;;;;;;5.29;100.00;102724.91;4970914;28;20049;-71
2022/01/12 01:31:31;;;;;;;7.90;4.10;;;;;;;5.24;100.00;102724.09;4952580;28;20057;-72
2022/01/12 01:33:59;;;;;;;7.72;3.40;;;;;;;5.19;100.00;102719.56;4961693;28;20041;-71
2022/01/12 01:36:27;;;;;;;10.25;4.50;;;;;;;5.17;100.00;102719.03;4982172;28;20046;-71
2022/01/12 01:38:53;;;;;;;8.75;3.00;;;;;;;5.13;100.00;102717.94;4952832;28;20118;-71
2022/01/12 01:41:21;;;;;;;10.40;4.43;;;;;;;5.11;100.00;102724.66;4951046;29;20127;-71
2022/01/12 01:53:18;;;;;;;8.55;3.80;;;;;;;5.08;100.00;102722.50;4969791;28;20437;-71
2022/01/12 01:55:06;;;;;;;10.05;3.90;;;;;;;5.10;100.00;102715.81;4963513;28;20066;-71
2022/01/12 01:57:32;;;;;;;12.82;5.00;;;;;;;5.20;100.00;102717.69;4955397;28;20043;-72
2022/01/12 02:00:06;;;;;;;10.40;4.20;;;;;;;5.12;100.00;102715.56;4985443;28;20500;-71
2022/01/12 02:02:50;;;;;;;12.45;3.17;;;;;;;5.10;100.00;102710.50;4972285;28;20049;-71
2022/01/12 02:05:16;;;;;;;14.77;4.40;;;;;;;5.21;100.00;102721.94;4971620;28;20046;-72
2022/01/12 02:07:43;;;;;;;7.97;4.10;;;;;;;5.21;100.00;102722.75;4955881;28;20673;-72
2022/01/12 02:10:09;;;;;;;10.88;4.60;;;;;;;5.17;100.00;102728.88;4949881;28;20393;-72
2022/01/12 02:12:43;;;;;;;11.15;4.88;;;;;;;5.14;100.00;102727.56;4950577;29;20419;-71
2022/01/12 02:15:17;;;;;;;8.10;4.07;;;;;;;5.19;100.00;102735.56;4955862;28;20039;-72
2022/01/12 02:17:56;;;;;;;12.45;4.55;;;;;;;5.12;100.00;102732.38;4964058;28;20030;-71
2022/01/12 02:37:01;;;;;;;11.15;5.70;;;;;;;5.11;100.00;102741.44;4970438;28;20109;-71
2022/01/12 02:42:34;;;;;;;10.57;4.63;;;;;;;5.07;100.00;102752.94;4933999;29;20054;-71
2022/01/12 02:55:43;;;;;;;12.05;4.60;;;;;;;5.18;100.00;102747.34;4990843;28;20038;-71
2022/01/12 02:58:09;;;;;;;11.82;4.97;;;;;;;5.20;100.00;102749.75;5005314;28;20039;-72
2022/01/12 03:03:20;;;;;;;8.43;4.53;;;;;;;5.23;100.00;102755.34;4973682;28;20043;-71
2022/01/12 03:05:55;;;;;;;13.50;5.35;;;;;;;5.18;100.00;102763.38;4986555;28;20041;-70
2022/01/12 03:08:23;;;;;;;13.68;5.03;;;;;;;5.12;100.00;102768.94;4990447;28;20039;-70
2022/01/12 03:10:49;;;;;;;9.90;5.40;;;;;;;5.15;100.00;102771.88;4971918;28;20027;-71
2022/01/12 03:13:14;;;;;;;13.60;5.95;;;;;;;5.17;100.00;102753.72;4975448;28;20116;-71
2022/01/12 03:15:41;;;;;;;14.98;4.75;;;;;;;5.20;100.00;102753.22;4976133;28;20734;-71
2022/01/12 03:18:10;;;;;;;17.95;6.45;;;;;;;5.19;100.00;102753.47;4994179;28;20407;-71
2022/01/12 03:20:38;;;;;;;14.57;6.20;;;;;;;5.19;100.00;102748.13;4984439;28;20041;-72
2022/01/12 03:23:04;;;;;;;13.27;5.65;;;;;;;5.14;100.00;102751.59;5008427;28;20041;-72
2022/01/12 03:25:30;;;;;;;12.93;5.97;;;;;;;5.06;100.00;102752.13;4988063;28;20039;-71
2022/01/12 03:28:00;;;;;;;14.52;6.32;;;;;;;5.01;100.00;102757.47;4987464;28;20030;-70
2022/01/12 03:30:26;;;;;;;12.05;6.32;;;;;;;5.30;100.00;102763.88;4990690;28;20074;-70
2022/01/12 03:33:07;;;;;;;17.27;5.88;;;;;;;5.23;100.00;102754.53;5006336;28;20038;-70
2022/01/12 03:35:51;;;;;;;18.08;5.53;;;;;;;5.21;100.00;102756.66;4975069;28;20047;-71
2022/01/12 03:38:22;;;;;;;15.32;6.35;;;;;;;5.28;100.00;102757.22;4993475;28;20054;-71
2022/01/12 03:40:50;;;;;;;12.93;5.65;;;;;;;5.24;100.00;102767.63;4979288;28;20034;-71
2022/01/12 03:43:17;;;;;;;11.75;4.80;;;;;;;5.53;100.00;102775.91;4972530;28;20034;-71
2022/01/12 03:45:47;;;;;;;11.65;4.95;;;;;;;5.48;100.00;102774.03;4977362;28;20061;-71
2022/01/12 03:48:12;;;;;;;23.67;5.75;;;;;;;5.45;100.00;102773.78;4987669;28;20113;-70
2022/01/12 03:50:38;;;;;;;13.00;5.93;;;;;;;5.34;100.00;102750.81;4984225;28;20085;-70
2022/01/12 03:53:04;;;;;;;14.18;5.47;;;;;;;5.26;100.00;102741.47;4992772;28;20034;-71
2022/01/12 03:55:30;;;;;;;17.88;6.65;;;;;;;5.22;100.00;102736.91;4989482;28;20038;-70
2022/01/12 03:57:58;;;;;;;16.10;5.90;;;;;;;5.18;100.00;102746.53;4991383;28;20113;-71
2022/01/12 04:00:24;;;;;;;19.33;6.35;;;;;;;5.30;100.00;102755.88;4989962;28;20129;-70
2022/01/12 04:02:50;;;;;;;16.48;6.32;;;;;;;5.34;100.00;102756.16;4988165;28;20452;-71
2022/01/12 04:10:43;;;;;;;13.73;6.10;;;;;;;5.15;100.00;102741.75;4991328;28;20042;-71
2022/01/12 04:13:09;;;;;;;12.93;5.63;;;;;;;5.16;100.00;102733.47;5002848;28;20522;-71
2022/01/12 04:15:38;;;;;;;18.23;6.68;;;;;;;5.17;100.00;102742.25;4990348;28;20088;-71
2022/01/12 04:18:04;;;;;;;20.08;7.13;;;;;;;5.09;100.00;102748.13;4989339;28;20045;-70
2022/01/12 04:20:30;;;;;;;13.73;6.00;;;;;;;5.00;100.00;102745.19;4988864;28;20034;-71
2022/01/12 04:25:40;;;;;;;17.15;6.85;;;;;;;5.07;100.00;102761.72;4991702;28;20061;-71
2022/01/12 04:28:05;;;;;;;18.83;6.70;;;;;;;5.11;100.00;102759.34;4982851;28;20058;-71
2022/01/12 04:30:31;;;;;;;15.50;6.05;;;;;;;5.21;100.00;102772.69;4981485;28;20280;-71
2022/01/12 04:32:56;;;;;;;18.83;7.18;;;;;;;5.13;100.00;102757.22;4986479;28;20117;-71
2022/01/12 04:35:25;;;;;;;11.35;5.60;;;;;;;5.21;100.00;102754.81;4985585;28;20122;-70
2022/01/12 04:37:51;;;;;;;17.88;6.70;;;;;;;5.16;100.00;102746.00;4986107;28;20137;-71
2022/01/12 04:40:17;;;;;;;11.63;5.45;;;;;;;5.10;100.00;102742.53;4983381;28;20046;-71
2022/01/12 04:42:42;;;;;;;21.70;7.22;;;;;;;5.14;100.00;102754.28;4988048;28;20070;-70
2022/01/12 04:45:32;;;;;;;16.25;6.43;;;;;;;5.11;100.00;102760.13;4972357;28;20034;-70
2022/01/12 04:50:26;;;;;;;16.65;6.68;;;;;;;5.24;100.00;102740.94;4986636;28;20081;-71
2022/01/12 04:52:52;;;;;;;14.60;5.93;;;;;;;5.18;100.00;102744.66;4989906;28;20082;-71
2022/01/12 04:55:18;;;;;;;17.23;5.63;;;;;;;5.27;100.00;102748.41;4989397;28;20061;-70
2022/01/12 04:57:44;;;;;;;23.13;6.53;;;;;;;5.27;100.00;102745.72;4983047;28;20030;-70
2022/01/12 05:00:15;;;;;;;20.23;6.00;;;;;;;5.25;100.00;102757.75;4978403;28;20034;-70
2022/01/12 05:13:36;;;;;;;17.30;6.55;;;;;;;5.16;100.00;102754.81;4984704;28;20073;-71
2022/01/12 05:16:03;;;;;;;22.60;6.53;;;;;;;5.21;100.00;102756.66;4989610;28;20077;-71
2022/01/12 05:18:31;;;;;;;16.65;5.50;;;;;;;5.26;100.00;102756.69;4983382;28;20034;-70
2022/01/12 05:20:58;;;;;;;12.57;5.75;;;;;;;5.21;100.00;102752.13;4988601;28;20030;-71
2022/01/12 05:23:24;;;;;;;11.57;5.25;;;;;;;5.16;100.00;102754.81;4987446;28;20038;-70
2022/01/12 05:25:52;;;;;;;18.17;6.72;;;;;;;5.16;100.00;102751.34;4988199;28;20077;-71
2022/01/12 05:28:22;;;;;;;14.45;6.47;;;;;;;5.25;100.00;102750.53;4980744;28;20022;-71
2022/01/12 05:30:49;;;;;;;14.83;6.60;;;;;;;5.35;100.00;102761.22;4972087;28;20034;-70
2022/01/12 05:33:16;;;;;;;13.98;4.95;;;;;;;5.30;100.00;102747.84;4989622;28;20285;-69
2022/01/12 05:35:43;;;;;;;14.95;6.65;;;;;;;5.47;100.00;102755.63;4972807;28;20125;-70
2022/01/12 05:38:12;;;;;;;18.35;5.85;;;;;;;5.38;100.00;102750.00;4981864;28;20030;-69
2022/01/12 05:40:46;;;;;;;15.90;5.95;;;;;;;5.25;100.00;102761.22;4984520;28;20026;-70
2022/01/12 05:43:24;;;;;;;15.43;6.10;;;;;;;5.25;100.00;102753.22;4986703;28;20051;-70
2022/01/12 05:45:52;;;;;;;13.55;5.95;;;;;;;5.28;100.00;102766.00;4970010;28;20183;-71
2022/01/12 05:50:46;;;;;;;15.32;5.22;;;;;;;5.24;100.00;102778.31;4981095;28;20030;-70
2022/01/12 05:53:17;;;;;;;14.55;5.15;;;;;;;5.25;100.00;102779.91;4986946;28;20027;-71
2022/01/12 05:55:44;;;;;;;14.25;5.38;;;;;;;5.37;100.00;102780.47;4969956;28;20026;-70
2022/01/12 05:58:11;;;;;;;12.80;4.78;;;;;;;5.31;100.00;102772.69;5001090;28;20033;-70
2022/01/12 06:00:37;;;;;;;12.52;5.80;;;;;;;5.40;100.00;102777.25;4961432;28;20449;-70
2022/01/12 06:03:03;;;;;;;16.10;6.65;;;;;;;5.33;100.00;102775.91;4984348;28;20050;-70
2022/01/12 06:05:31;;;;;;;15.50;6.07;;;;;;;5.47;100.00;102769.78;4976057;28;20494;-70
2022/01/12 06:07:58;;;;;;;17.00;6.18;;;;;;;5.55;100.00;102768.44;5008623;28;20027;-70
2022/01/12 06:10:24;;;;;;;16.85;5.30;;;;;;;5.62;100.00;102770.81;4970258;28;20457;-70
2022/01/12 06:12:51;;;;;;;16.67;5.90;;;;;;;5.48;100.00;102773.22;4985214;28;20037;-71
2022/01/12 06:15:18;;;;;;;11.32;4.95;;;;;;;5.36;100.00;102780.75;4988147;28;20818;-70
2022/01/12 06:17:44;;;;;;;12.80;4.70;;;;;;;5.57;100.00;102789.53;4985143;28;20129;-70
2022/01/12 06:20:10;;;;;;;13.45;5.28;;;;;;;5.80;100.00;102794.34;4989821;28;20065;-70
2022/01/12 06:23:01;;;;;;;9.90;5.13;;;;;;;5.57;100.00;102794.88;4982768;28;20027;-70
2022/01/12 06:25:28;;;;;;;14.32;5.63;;;;;;;5.69;100.00;102798.09;4995507;28;20526;-71
2022/01/12 06:27:57;;;;;;;12.63;5.75;;;;;;;5.53;100.00;102796.47;4981113;28;20030;-70
2022/01/12 06:33:03;;;;;;;13.10;5.40;;;;;;;5.47;100.00;102798.34;4979510;28;20038;-70
2022/01/12 06:35:28;;;;;;;12.98;4.63;;;;;;;5.48;100.00;102798.09;4986812;28;20872;-70
2022/01/12 06:37:57;;;;;;;15.27;5.28;;;;;;;5.65;100.00;102803.19;4988976;28;20125;-71
2022/01/12 06:40:23;;;;;;;15.63;5.35;;;;;;;5.75;100.00;102821.06;4989347;28;20137;-70
2022/01/12 06:42:51;;;;;;;14.77;5.30;;;;;;;5.70;100.00;102821.88;4982579;28;20035;-70
2022/01/12 06:45:17;;;;;;;17.40;5.40;;;;;;;5.59;100.00;102830.16;4946418;28;1093398;-70
2022/01/12 06:47:44;;;;;;;14.57;5.85;;;;;;;5.53;100.00;102838.16;4991846;28;20121;-70
2022/01/12 06:50:11;;;;;;;11.07;5.22;;;;;;;5.79;100.00;102830.16;4988985;28;20033;-70
2022/01/12 06:52:37;;;;;;;13.48;5.18;;;;;;;5.79;100.00;102827.50;4968853;28;20030;-70
2022/01/12 06:55:05;;;;;;;15.20;6.05;;;;;;;5.69;100.00;102833.63;4992060;28;20038;-70
2022/01/12 06:57:31;;;;;;;18.58;6.82;;;;;;;5.70;100.00;102840.56;4991446;28;20026;-70
2022/01/12 06:59:57;;;;;;;16.58;6.57;;;;;;;5.64;100.00;102841.66;4971542;28;20081;-70
2022/01/12 07:02:23;;;;;;;14.07;5.65;;;;;;;5.65;100.00;102845.94;4982266;28;20034;-70
2022/01/12 07:04:51;;;;;;;20.65;5.05;;;;;;;5.58;100.00;102847.25;4984150;28;20070;-70
2022/01/12 07:07:19;;;;;;;20.88;5.85;;;;;;;5.70;100.00;102863.81;4992117;28;20040;-70
2022/01/12 07:09:48;;;;;;;11.52;4.85;;;;;;;5.65;100.00;102856.63;4988644;28;20085;-70
2022/01/12 07:12:18;;;;;;;14.52;5.18;;;;;;;5.67;100.00;102861.69;4987134;28;20034;-70
2022/01/12 07:14:44;;;;;;;12.50;4.47;;;;;;;5.84;100.00;102864.94;4971698;28;20033;-69
2022/01/12 07:17:15;;;;;;;14.00;4.85;;;;;;;5.73;100.00;102860.63;4966165;28;20034;-70
2022/01/12 07:19:41;;;;;;;16.73;5.00;;;;;;;5.67;100.00;102859.81;4982608;28;20072;-70
2022/01/12 07:22:07;;;;;;;19.15;5.38;;;;;;;5.82;100.00;102867.03;4988463;28;20639;-70
2022/01/12 07:24:32;;;;;;;15.48;4.55;;;;;;;6.00;100.00;102871.88;4990108;28;20037;-71
2022/01/12 07:26:58;;;;;;;14.25;4.05;;;;;;;5.91;100.00;102868.13;4988830;28;20512;-70
2022/01/12 07:29:23;;;;;;;16.70;5.50;;;;;;;5.75;100.00;102864.63;4986105;28;20081;-70
2022/01/12 07:31:49;;;;;;;9.85;3.28;;;;;;;5.92;100.00;102885.78;4969568;28;20038;-71
2022/01/12 07:34:17;;;;;;;12.30;3.78;;;;;;;5.80;100.00;102887.88;4987289;28;20039;-71
2022/01/12 07:36:44;;;;;;;13.18;4.32;;;;;;;5.90;100.00;102888.72;4985548;28;20041;-71
2022/01/12 07:39:10;;;;;;;11.88;4.82;;;;;;;5.92;100.00;102891.13;4988637;28;20058;-71
2022/01/12 07:41:35;;;;;;;18.30;4.55;;;;;;;5.93;100.00;102896.22;4983495;28;20077;-71
2022/01/12 07:44:01;;;;;;;15.60;4.15;;;;;;;5.79;100.00;102897.00;4987744;28;20093;-71
2022/01/12 07:46:26;;;;;;;13.50;5.18;;;;;;;5.89;100.00;102897.00;4981509;28;20517;-71
2022/01/12 07:48:52;;;;;;;17.02;4.93;;;;;;;5.79;100.00;102907.69;4995937;28;20038;-71
2022/01/12 07:51:18;;;;;;;17.48;5.40;;;;;;;5.68;100.00;102906.03;4982074;28;20046;-70
2022/01/12 07:53:44;;;;;;;11.45;4.25;;;;;;;5.83;100.00;102908.72;4984282;28;20030;-70
2022/01/12 07:56:10;;;;;;;14.20;4.60;;;;;;;5.77;100.00;102905.25;4988330;28;20555;-72
2022/01/12 07:58:36;;;;;;;19.20;5.70;;;;;;;5.78;100.00;102911.41;4980236;28;20124;-71
2022/01/12 08:01:01;;;;;;;15.25;5.13;;;;;;;5.81;100.00;102902.84;4981049;28;20038;-71
2022/01/12 08:03:26;;;;;;;12.23;4.60;;;;;;;5.95;100.00;102906.63;5004119;28;20069;-71
2022/01/12 08:05:52;;;;;;;14.57;4.10;;;;;;;6.03;100.00;102901.56;4989828;28;20042;-71
2022/01/12 08:08:18;;;;;;;12.35;3.90;;;;;;;5.96;100.00;102898.34;4988959;28;20062;-71
2022/01/12 08:10:44;;;;;;;11.48;3.75;;;;;;;5.91;100.00;102903.69;4988158;28;20402;-71
2022/01/12 08:13:09;;;;;;;11.00;4.75;;;;;;;6.04;100.00;102907.72;4988364;28;20045;-71
2022/01/12 08:15:35;;;;;;;10.57;4.20;;;;;;;5.99;100.00;102905.84;4989737;28;20062;-71
2022/01/12 08:18:00;;;;;;;12.77;5.18;;;;;;;6.08;100.00;102903.41;4990577;28;20037;-71
2022/01/12 08:20:28;;;;;;;11.43;3.75;;;;;;;5.99;100.00;102897.00;4985985;28;20085;-72
2022/01/12 08:22:55;;;;;;;13.75;3.33;;;;;;;5.99;100.00;102902.34;4987592;28;20092;-72
2022/01/12 08:25:21;;;;;;;6.60;3.72;;;;;;;6.06;100.00;102901.00;4989390;28;20494;-72
2022/01/12 08:27:47;;;;;;;10.75;2.90;;;;;;;6.01;100.00;102903.69;4989336;28;20026;-71
2022/01/12 08:30:18;;;;;;;10.25;3.65;;;;;;;5.99;100.00;102913.03;4985447;28;20041;-71
2022/01/12 08:32:46;;;;;;;11.32;4.35;;;;;;;5.86;100.00;102914.41;4981470;28;20030;-71
2022/01/12 08:35:13;;;;;;;12.73;3.67;;;;;;;6.07;100.00;102915.19;4986139;28;20526;-71
2022/01/12 08:37:38;;;;;;;15.40;4.40;;;;;;;6.13;100.00;102906.91;4986717;28;20034;-72
2022/01/12 08:40:04;;;;;;;16.38;4.32;;;;;;;6.10;100.00;102909.28;4985954;28;20084;-72
2022/01/12 08:42:30;;;;;;;11.70;4.07;;;;;;;5.95;100.00;102918.13;4984673;28;20038;-71
2022/01/12 08:44:59;;;;;;;7.60;3.08;;;;;;;6.05;100.00;102914.66;4987897;28;20069;-71
2022/01/12 08:47:25;;;;;;;11.70;3.33;;;;;;;6.09;100.00;102937.13;5027564;23;20050;-72
2022/01/12 08:49:51;;;;;;;18.30;4.43;;;;;;;6.18;100.00;102940.84;4976294;28;20035;-72
2022/01/12 08:52:16;;;;;;;11.13;3.25;;;;;;;6.17;100.00;102949.97;4974044;28;20027;-72
2022/01/12 08:54:41;;;;;;;9.57;3.35;;;;;;;6.21;100.00;102949.13;4977334;28;20071;-72
2022/01/12 08:57:07;;;;;;;10.57;2.60;;;;;;;6.24;100.00;102956.63;4975639;28;20042;-71
2022/01/12 08:59:32;;;;;;;12.07;4.20;;;;;;;6.23;100.00;102954.25;4976304;28;20039;-71
2022/01/12 09:01:58;;;;;;;13.73;5.20;;;;;;;6.08;100.00;102955.03;4983339;28;20049;-71
2022/01/12 09:04:23;;;;;;;12.70;3.75;;;;;;;6.10;100.00;102950.22;4981725;28;20035;-72
2022/01/12 09:06:49;;;;;;;13.68;5.00;;;;;;;6.27;100.00;102952.63;4986811;28;20065;-72
2022/01/12 09:09:17;;;;;;;23.15;3.72;;;;;;;6.22;100.00;102950.75;4984352;28;20034;-71
2022/01/12 09:11:43;;;;;;;9.63;3.75;;;;;;;6.43;100.00;102956.09;4979612;28;20051;-71
2022/01/12 09:14:08;;;;;;;10.65;3.80;;;;;;;6.27;100.00;102948.06;4983280;28;20084;-71
2022/01/12 09:16:34;;;;;;;22.30;4.43;;;;;;;6.19;100.00;102953.16;4967207;28;20125;-71
2022/01/12 09:18:59;;;;;;;12.85;3.25;;;;;;;6.36;100.00;102957.19;4976991;28;20042;-71
2022/01/12 09:21:25;;;;;;;17.63;3.80;;;;;;;6.47;100.00;102967.84;4984690;28;20042;-72
2022/01/12 09:23:53;;;;;;;9.40;3.88;;;;;;;6.36;100.00;102967.06;4986716;28;20041;-71
2022/01/12 09:26:20;;;;;;;14.35;3.85;;;;;;;6.25;100.00;102960.91;4976842;28;20049;-72
2022/01/12 09:28:48;;;;;;;12.48;3.45;;;;;;;6.33;100.00;102967.59;4973020;28;20038;-72
2022/01/12 09:31:13;;;;;;;8.20;3.13;;;;;;;6.45;100.00;102967.31;4987679;28;20041;-72
2022/01/12 09:33:39;;;;;;;14.95;3.85;;;;;;;6.55;100.00;102970.78;4987999;28;20113;-72
2022/01/12 09:36:04;;;;;;;14.27;3.97;;;;;;;6.54;100.00;102969.19;4985372;28;20484;-72
2022/01/12 09:38:30;;;;;;;7.28;3.28;;;;;;;6.48;100.00;102972.94;4984253;28;20030;-72
2022/01/12 09:40:56;;;;;;;8.65;2.88;;;;;;;6.56;100.00;102980.44;4986794;28;20038;-72
2022/01/12 09:43:28;;;;;;;8.23;2.92;;;;;;;6.61;100.00;102979.59;4989452;28;20042;-71
2022/01/12 09:45:54;;;;;;;12.75;4.53;;;;;;;6.63;100.00;102978.28;4985607;28;20046;-72
2022/01/12 09:48:26;;;;;;;8.25;3.45;;;;;;;6.57;100.00;102981.22;4970632;28;20503;-72
2022/01/12 09:50:52;;;;;;;19.13;3.90;;;;;;;6.45;100.00;102970.78;4981307;28;20125;-72
2022/01/12 09:53:18;;;;;;;14.20;4.63;;;;;;;6.51;100.00;102975.06;4977907;28;20592;-72
2022/01/12 09:55:44;;;;;;;13.60;3.45;;;;;;;6.59;100.00;102974.53;4975086;28;20490;-72
2022/01/12 09:58:10;;;;;;;11.65;3.63;;;;;;;6.52;100.00;102984.72;4984342;28;20062;-72
2022/01/12 10:00:35;;;;;;;7.75;2.72;;;;;;;6.54;100.00;102973.75;4966201;28;20045;-72
2022/01/12 10:03:11;;;;;;;17.33;4.30;;;;;;;6.36;100.00;102986.59;4982984;28;20035;-72
2022/01/12 10:05:37;;;;;;;8.15;2.72;;;;;;;6.34;100.00;102990.63;4978467;28;20038;-72
2022/01/12 10:08:14;;;;;;;5.97;3.35;;;;;;;6.52;100.00;102990.06;4984785;28;20117;-71
2022/01/12 10:10:42;;;;;;;9.90;3.08;;;;;;;6.37;100.00;103019.50;4977752;28;20039;-72
2022/01/12 10:13:23;;;;;;;11.98;4.03;;;;;;;6.53;100.00;103018.44;4979904;28;20034;-72
2022/01/12 10:16:09;;;;;;;15.73;3.00;;;;;;;6.65;100.00;103005.56;4970798;28;20039;-72
2022/01/12 10:18:44;;;;;;;11.05;3.30;;;;;;;6.78;100.00;103010.38;4978238;28;20042;-71
2022/01/12 10:21:10;;;;;;;9.70;4.32;;;;;;;6.64;100.00;103014.66;4980854;28;20045;-71
2022/01/12 10:23:38;;;;;;;17.77;4.50;;;;;;;6.64;100.00;103013.88;4974584;28;20483;-71
2022/01/12 10:26:04;;;;;;;7.80;3.03;;;;;;;6.63;100.00;103015.75;4979285;28;20043;-71
2022/01/12 10:28:29;;;;;;;10.50;3.47;;;;;;;6.60;100.00;103013.59;4981964;28;20027;-71
2022/01/12 10:31:01;;;;;;;10.88;3.85;;;;;;;6.69;100.00;103020.03;4983680;28;20117;-71
2022/01/12 10:33:33;;;;;;;10.10;3.50;;;;;;;6.69;100.00;103014.69;4985438;28;20038;-71
2022/01/12 10:36:06;;;;;;;10.80;3.47;;;;;;;6.79;100.00;103014.66;4973092;28;20046;-71
2022/01/12 10:38:32;;;;;;;15.13;2.90;;;;;;;6.75;100.00;103010.94;4968568;28;20074;-72
2022/01/12 10:41:03;;;;;;;10.73;3.63;;;;;;;6.58;100.00;103013.06;4974980;28;20704;-71
2022/01/12 10:43:31;;;;;;;15.57;4.20;;;;;;;6.69;100.00;103014.69;4987481;28;20491;-71
2022/01/12 10:45:59;;;;;;;18.48;3.47;;;;;;;6.59;100.00;103012.00;4981254;28;20836;-71
2022/01/12 10:48:31;;;;;;;11.48;2.47;;;;;;;6.77;100.00;103021.34;4978820;28;20034;-71
2022/01/12 10:50:59;;;;;;;12.77;4.97;;;;;;;6.65;100.00;103029.66;4983988;28;20030;-72
2022/01/12 10:53:28;;;;;;;9.02;2.78;;;;;;;6.75;100.00;103031.53;4975403;28;20041;-71
2022/01/12 10:56:06;;;;;;;8.75;3.35;;;;;;;6.65;100.00;103027.00;4985758;28;20042;-71
2022/01/12 10:58:33;;;;;;;6.47;2.40;;;;;;;6.68;100.00;103023.75;4992201;28;20031;-71
2022/01/12 11:00:58;;;;;;;14.90;4.05;;;;;;;6.74;100.00;103035.25;4988011;28;20042;-72
2022/01/12 11:03:24;;;;;;;7.82;2.45;;;;;;;6.73;100.00;103031.81;4980687;28;20033;-72
2022/01/12 11:05:50;;;;;;;7.47;2.85;;;;;;;6.61;100.00;103027.78;4987285;28;20026;-72
2022/01/12 11:08:18;;;;;;;11.10;3.45;;;;;;;6.73;100.00;103026.44;4987919;28;20158;-72
2022/01/12 11:10:45;;;;;;;12.43;3.22;;;;;;;6.65;100.00;103018.97;4988040;28;20383;-72
2022/01/12 11:13:12;;;;;;;12.20;3.88;;;;;;;6.60;100.00;103008.25;4987312;28;20058;-72
2022/01/12 11:15:38;;;;;;;14.10;3.22;;;;;;;6.64;100.00;103008.53;4979567;28;20481;-73
2022/01/12 11:18:04;;;;;;;9.15;3.67;;;;;;;6.76;100.00;103006.34;4984858;28;20042;-72
2022/01/12 11:20:30;;;;;;;13.65;2.88;;;;;;;6.67;100.00;103013.34;4978771;28;20079;-72
2022/01/12 11:23:09;;;;;;;6.22;2.90;;;;;;;6.57;100.00;103000.75;4985545;28;20069;-72
2022/01/12 11:25:46;;;;;;;7.28;2.70;;;;;;;6.59;100.00;102995.94;4990420;28;20046;-72
2022/01/12 11:28:24;;;;;;;13.73;3.90;;;;;;;6.61;100.00;102999.16;4981715;28;20570;-73
2022/01/12 11:30:50;;;;;;;16.20;4.07;;;;;;;6.62;100.00;102992.72;4978769;28;20117;-72
2022/01/12 11:33:21;;;;;;;7.88;3.42;;;;;;;6.74;100.00;102990.56;4984877;28;20176;-72
2022/01/12 11:35:52;;;;;;;18.00;3.30;;;;;;;6.70;100.00;102989.50;4987110;28;20086;-73
2022/01/12 11:38:29;;;;;;;10.05;3.72;;;;;;;6.61;100.00;102979.59;4984191;28;20069;-73
2022/01/12 11:41:07;;;;;;;8.73;3.05;;;;;;;6.53;100.00;102980.16;4981083;28;20038;-73
2022/01/12 11:43:53;;;;;;;13.77;3.95;;;;;;;6.83;100.00;102982.78;4981971;28;20031;-73
2022/01/12 11:46:22;;;;;;;15.73;3.70;;;;;;;6.91;100.00;102972.31;4981750;28;20101;-72
2022/01/12 11:48:55;;;;;;;13.63;3.38;;;;;;;6.84;100.00;102969.13;4990395;28;20382;-72
2022/01/12 11:51:40;;;;;;;8.70;4.03;;;;;;;6.83;100.00;102970.19;4987284;28;20093;-72
2022/01/12 11:54:17;;;;;;;15.15;3.83;;;;;;;6.83;100.00;102974.75;4988583;28;20454;-72
2022/01/12 11:57:03;;;;;;;12.68;3.05;;;;;;;6.76;100.00;102983.06;4972165;28;20105;-72
2022/01/12 11:59:47;;;;;;;15.40;3.25;;;;;;;6.88;100.00;102985.44;4982087;28;20034;-72
2022/01/12 12:02:17;;;;;;;9.10;3.95;;;;;;;6.84;100.00;102979.03;4970883;28;20037;-72
2022/01/12 12:05:06;;;;;;;6.90;3.13;;;;;;;6.84;100.00;102969.13;4983204;28;20044;-73
2022/01/12 12:07:44;;;;;;;13.75;3.75;;;;;;;7.09;100.00;102970.91;4985286;28;20041;-72
2022/01/12 12:10:11;;;;;;;18.13;3.67;;;;;;;7.08;100.00;102975.47;4979677;28;20121;-72
2022/01/12 12:12:37;;;;;;;8.30;3.22;;;;;;;7.10;100.00;102977.88;4981469;28;20042;-72
2022/01/12 12:15:08;;;;;;;10.18;3.80;;;;;;;7.06;100.00;102969.59;4990544;28;20498;-72
2022/01/12 12:17:36;;;;;;;14.05;4.07;;;;;;;7.08;100.00;102972.78;4981608;28;20050;-72
2022/01/12 12:20:05;;;;;;;9.10;3.38;;;;;;;7.14;100.00;102970.91;4986421;28;20129;-72
2022/01/12 12:22:33;;;;;;;11.43;3.33;;;;;;;7.06;100.00;102974.16;4971244;28;20121;-73
2022/01/12 12:25:19;;;;;;;7.38;3.40;;;;;;;7.15;100.00;102970.63;4983226;28;20026;-73
2022/01/12 12:27:50;;;;;;;9.38;2.50;;;;;;;7.23;100.00;102971.94;4987755;28;20026;-72
2022/01/12 12:30:17;;;;;;;8.13;3.03;;;;;;;7.00;100.00;102977.91;4983432;28;20406;-73
2022/01/12 12:32:46;;;;;;;7.43;3.03;;;;;;;6.90;100.00;102981.44;4982924;28;20041;-73
2022/01/12 12:35:15;;;;;;;10.48;2.95;;;;;;;6.92;100.00;102981.16;4982158;28;20034;-72
2022/01/12 12:37:44;;;;;;;9.52;3.33;;;;;;;7.11;100.00;102985.66;4986642;28;20049;-72
2022/01/12 12:40:16;;;;;;;9.38;2.33;;;;;;;7.13;100.00;102991.53;4980858;28;20498;-73
2022/01/12 12:42:43;;;;;;;16.98;3.50;;;;;;;7.19;100.00;102993.13;4986940;28;20043;-73
2022/01/12 12:45:09;;;;;;;15.57;2.85;;;;;;;7.21;100.00;102993.66;4980133;28;20462;-72
2022/01/12 12:47:35;;;;;;;9.00;3.13;;;;;;;7.28;100.00;102988.78;4983276;28;20038;-73
2022/01/12 12:50:08;;;;;;;5.65;1.92;;;;;;;7.26;100.00;102987.44;4970855;28;20041;-73
2022/01/12 12:52:39;;;;;;;14.90;3.28;;;;;;;7.17;100.00;102989.91;4980317;28;20065;-73